Time;durP1;ratioP1;P1;durP2;ratioP2;P2;SDS_P1;SDS_P2;PMS_P1;PMS_P2;Temp;Humidity;BMP_temperature;BMP_pressure;BME280_temperature;BME280_humidity;BME280_pressure;Samples;Min_cycle;Max_cycle;Signal;HPM_P1;HPM_P2
2022/01/22 00:01:21;896912.00;2.99;1550.70;0.00;0.00;0.62;;;;;6.10;1.00;;;;;;2280415;61;778;-87
2022/01/22 00:03:48;633684.00;2.11;1092.42;0.00;0.00;0.62;;;;;6.10;1.00;;;;;;2280283;61;1581;-88
2022/01/22 00:06:15;671208.00;2.24;1157.34;0.00;0.00;0.62;;;;;6.30;1.00;;;;;;2280372;61;1140;-87
2022/01/22 00:08:43;592822.00;1.98;1021.83;0.00;0.00;0.62;;;;;6.00;1.00;;;;;;2280339;61;1097;-87
2022/01/22 00:11:11;878174.00;2.93;1517.82;9879.00;0.03;17.74;;;;;5.90;1.00;;;;;;2280346;61;1173;-86
2022/01/22 00:16:23;712741.00;2.38;1229.34;0.00;0.00;0.62;;;;;5.80;1.00;;;;;;2280319;61;671;-87
2022/01/22 00:18:50;941645.00;3.14;1629.38;211424.00;0.70;365.59;;;;;5.70;1.00;;;;;;2280285;61;1931;-87
2022/01/22 00:21:17;1316519.00;4.39;2302.37;237096.00;0.79;409.76;;;;;5.40;1.00;;;;;;2280275;61;1121;-88
2022/01/22 00:23:54;612979.00;2.04;1056.64;0.00;0.00;0.62;;;;;5.40;1.00;;;;;;2280259;61;1373;-87
2022/01/22 00:26:21;535960.00;1.79;923.76;10175.00;0.03;18.25;;;;;6.10;1.00;;;;;;2280268;61;1725;-87
2022/01/22 00:28:48;653897.00;2.18;1127.38;5598.00;0.02;10.32;;;;;5.90;1.00;;;;;;2280146;61;1696;-87
2022/01/22 00:31:15;491973.00;1.64;848.01;0.00;0.00;0.62;;;;;5.70;1.00;;;;;;2280281;61;1128;-86
2022/01/22 00:33:42;434360.00;1.45;748.88;0.00;0.00;0.62;;;;;5.70;1.00;;;;;;2280213;61;1407;-87
2022/01/22 00:36:09;492698.00;1.64;849.25;0.00;0.00;0.62;;;;;5.70;1.00;;;;;;2280200;61;1136;-87
2022/01/22 00:38:36;665788.00;2.22;1147.96;0.00;0.00;0.62;;;;;5.60;1.00;;;;;;2280207;61;1919;-87
2022/01/22 00:41:05;378136.00;1.26;652.22;0.00;0.00;0.62;;;;;5.60;1.00;;;;;;2280186;61;1587;-87
2022/01/22 00:43:32;577423.00;1.92;995.25;0.00;0.00;0.62;;;;;5.80;1.00;;;;;;2280178;61;1607;-86
2022/01/22 00:45:59;863712.00;2.88;1492.47;70329.00;0.23;122.33;;;;;6.00;1.00;;;;;;2280191;61;1044;-88
2022/01/22 00:48:26;680598.00;2.27;1173.61;0.00;0.00;0.62;;;;;5.70;1.00;;;;;;2280190;61;1140;-88
2022/01/22 00:50:55;839708.00;2.80;1450.46;0.00;0.00;0.62;;;;;5.40;1.00;;;;;;2280248;61;969;-88
2022/01/22 00:53:23;529091.00;1.76;911.93;0.00;0.00;0.62;;;;;5.20;1.00;;;;;;2280137;61;1414;-87
2022/01/22 00:55:50;758635.00;2.53;1309.08;0.00;0.00;0.62;;;;;5.00;1.00;;;;;;2280155;61;1092;-88
2022/01/22 00:58:18;636322.00;2.12;1096.98;0.00;0.00;0.62;;;;;4.90;1.00;;;;;;2280128;61;1985;-87
2022/01/22 01:00:45;743444.00;2.48;1282.66;0.00;0.00;0.62;;;;;5.00;1.00;;;;;;2280200;61;1114;-87
2022/01/22 01:03:12;641029.00;2.14;1105.12;0.00;0.00;0.62;;;;;4.90;1.00;;;;;;2280671;61;1476;-88
2022/01/22 01:05:39;733842.00;2.45;1265.98;0.00;0.00;0.62;;;;;5.30;1.00;;;;;;2280915;61;939;-87
2022/01/22 01:08:06;944366.00;3.15;1634.18;12299.00;0.04;21.93;;;;;5.20;1.00;;;;;;2280878;61;1125;-88
2022/01/22 01:10:34;1501356.00;5.00;2645.67;187638.00;0.63;324.64;;;;;5.40;1.00;;;;;;2280810;61;1540;-87
2022/01/22 01:13:01;539627.00;1.80;930.08;0.00;0.00;0.62;;;;;5.60;1.00;;;;;;2280738;61;1675;-86
2022/01/22 01:15:40;502456.00;1.67;866.05;19819.00;0.07;34.96;;;;;5.80;1.00;;;;;;2280859;61;940;-87
2022/01/22 01:32:13;1100703.00;3.67;1911.68;45016.00;0.15;78.57;;;;;6.30;1.00;;;;;;2280538;61;633;-88
2022/01/22 01:34:43;908370.00;3.03;1570.83;0.00;0.00;0.62;;;;;5.90;1.00;;;;;;2280723;61;1776;-88
2022/01/22 01:37:12;509936.00;1.70;878.93;0.00;0.00;0.62;;;;;6.00;1.00;;;;;;2280734;61;1989;-88
2022/01/22 01:39:40;875840.00;2.92;1513.73;6416.00;0.02;11.74;;;;;6.10;1.00;;;;;;2280722;61;1563;-88
2022/01/22 01:42:11;769221.00;2.56;1327.50;21653.00;0.07;38.13;;;;;5.80;1.00;;;;;;2280782;61;1063;-88
2022/01/22 01:44:39;668660.00;2.23;1152.93;0.00;0.00;0.62;;;;;5.90;1.00;;;;;;2280735;61;1321;-87
2022/01/22 01:47:11;906346.00;3.02;1567.27;32485.00;0.11;56.88;;;;;5.90;1.00;;;;;;2280714;61;1457;-88
2022/01/22 01:49:38;736826.00;2.46;1271.16;0.00;0.00;0.62;;;;;5.90;1.00;;;;;;2280695;61;1597;-87
2022/01/22 01:52:10;858627.00;2.86;1483.57;0.00;0.00;0.62;;;;;6.00;1.00;;;;;;2280707;61;1418;-88
2022/01/22 01:54:46;816998.00;2.72;1410.78;10458.00;0.03;18.74;;;;;6.40;1.00;;;;;;2280643;61;1417;-87
2022/01/22 01:59:59;773672.00;2.58;1335.25;0.00;0.00;0.62;;;;;6.40;1.00;;;;;;2280691;61;1244;-88
2022/01/22 02:02:30;544693.00;1.82;938.81;0.00;0.00;0.62;;;;;6.10;1.00;;;;;;2280687;61;1176;-88
2022/01/22 02:04:57;663901.00;2.21;1144.69;0.00;0.00;0.62;;;;;6.00;1.00;;;;;;2280628;61;1625;-87
2022/01/22 02:07:24;697390.00;2.32;1202.71;0.00;0.00;0.62;;;;;5.90;1.00;;;;;;2280689;61;1022;-88
2022/01/22 02:09:51;621196.00;2.07;1070.83;0.00;0.00;0.62;;;;;6.40;1.00;;;;;;2280667;61;906;-88
2022/01/22 02:12:35;857389.00;2.86;1481.40;37492.00;0.12;65.55;;;;;6.60;1.00;;;;;;2280628;61;1608;-88
2022/01/22 02:23:35;432163.00;1.44;745.11;0.00;0.00;0.62;;;;;6.40;1.00;;;;;;2280639;61;1335;-88
2022/01/22 02:26:02;587087.00;1.96;1011.93;0.00;0.00;0.62;;;;;6.50;1.00;;;;;;2280571;61;1262;-88
2022/01/22 02:28:30;836863.00;2.79;1445.49;0.00;0.00;0.62;;;;;6.20;1.00;;;;;;2280503;61;1525;-88
2022/01/22 02:31:04;932463.00;3.11;1613.21;0.00;0.00;0.62;;;;;6.10;1.00;;;;;;2280529;61;1627;-88
2022/01/22 02:33:37;725623.00;2.42;1251.70;0.00;0.00;0.62;;;;;6.20;1.00;;;;;;2280479;61;1610;-89
2022/01/22 02:36:14;1060340.00;3.53;1839.64;41573.00;0.14;72.61;;;;;6.60;1.00;;;;;;2280524;61;1529;-88
2022/01/22 02:38:50;632678.00;2.11;1090.68;29108.00;0.10;51.04;;;;;6.40;1.00;;;;;;2280516;61;1919;-88
2022/01/22 02:41:20;515567.00;1.72;888.63;0.00;0.00;0.62;;;;;6.50;1.00;;;;;;2280559;61;1023;-88
2022/01/22 02:43:48;746724.00;2.49;1288.36;12889.00;0.04;22.95;;;;;6.10;1.00;;;;;;2280461;61;1235;-88
2022/01/22 02:46:17;645798.00;2.15;1113.37;0.00;0.00;0.62;;;;;5.90;1.00;;;;;;2280487;61;1589;-89
2022/01/22 02:48:44;1197487.00;3.99;2085.68;113094.00;0.38;196.17;;;;;6.00;1.00;;;;;;2280595;61;1230;-88
2022/01/22 02:51:11;1042853.00;3.48;1808.52;0.00;0.00;0.62;;;;;5.90;1.00;;;;;;2280573;61;1055;-88
2022/01/22 02:53:39;764873.00;2.55;1319.93;0.00;0.00;0.62;;;;;6.10;1.00;;;;;;2280497;61;1476;-88
2022/01/22 02:56:11;774216.00;2.58;1336.19;14068.00;0.05;25.00;;;;;6.50;1.00;;;;;;2280465;61;1640;-89
2022/01/22 02:58:38;745368.00;2.48;1286.00;0.00;0.00;0.62;;;;;6.60;1.00;;;;;;2280499;61;2008;-88
2022/01/22 03:01:05;1071657.00;3.57;1859.81;0.00;0.00;0.62;;;;;6.90;1.00;;;;;;2280478;61;1693;-88
2022/01/22 03:03:32;742468.00;2.47;1280.96;89036.00;0.30;154.64;;;;;6.70;1.00;;;;;;2280384;61;1608;-89
2022/01/22 03:06:01;872226.00;2.91;1507.39;18145.00;0.06;32.06;;;;;7.00;1.00;;;;;;2280544;61;1440;-89
2022/01/22 03:08:29;736795.00;2.46;1271.11;38955.00;0.13;68.08;;;;;6.60;1.00;;;;;;2280521;61;992;-88
2022/01/22 03:10:57;641577.00;2.14;1106.07;22105.00;0.07;38.92;;;;;6.50;1.00;;;;;;2280517;61;1566;-88
2022/01/22 03:16:28;641443.00;2.14;1105.83;0.00;0.00;0.62;;;;;6.50;1.00;;;;;;2279788;61;1603;-89
2022/01/22 03:19:00;583629.00;1.95;1005.96;0.00;0.00;0.62;;;;;6.60;1.00;;;;;;2280386;61;1992;-89
2022/01/22 03:21:38;810557.00;2.70;1399.54;0.00;0.00;0.62;;;;;6.80;1.00;;;;;;2280467;61;1104;-89
2022/01/22 03:29:45;558018.00;1.86;961.78;0.00;0.00;0.62;;;;;6.60;1.00;;;;;;2280403;61;1074;-88
2022/01/22 03:32:13;899822.00;3.00;1555.81;0.00;0.00;0.62;;;;;6.70;1.00;;;;;;2280347;61;1549;-88
2022/01/22 03:34:53;606477.00;2.02;1045.40;0.00;0.00;0.62;;;;;6.40;1.00;;;;;;2280362;61;1266;-89
2022/01/22 03:37:21;786274.00;2.62;1357.20;18423.00;0.06;32.54;;;;;6.40;1.00;;;;;;2280434;61;1002;-88
2022/01/22 03:39:48;680013.00;2.27;1172.60;0.00;0.00;0.62;;;;;6.40;1.00;;;;;;2280369;61;2026;-88
2022/01/22 03:42:15;720573.00;2.40;1242.93;0.00;0.00;0.62;;;;;6.50;1.00;;;;;;2280481;61;1011;-88
2022/01/22 03:44:43;667074.00;2.22;1150.19;71223.00;0.24;123.87;;;;;6.70;1.00;;;;;;2280405;61;1290;-89
2022/01/22 03:47:11;539182.00;1.80;929.31;0.00;0.00;0.62;;;;;6.40;1.00;;;;;;2280483;61;1083;-88
2022/01/22 03:49:38;590712.00;1.97;1018.19;0.00;0.00;0.62;;;;;6.10;1.00;;;;;;2280389;61;1527;-89
2022/01/22 03:52:06;712575.00;2.38;1229.05;0.00;0.00;0.62;;;;;6.60;1.00;;;;;;2280364;61;1120;-89
2022/01/22 03:54:33;333079.00;1.11;574.78;0.00;0.00;0.62;;;;;6.90;1.00;;;;;;2280294;61;1253;-89
2022/01/22 03:57:03;672600.00;2.24;1159.76;0.00;0.00;0.62;;;;;7.00;1.00;;;;;;2280320;61;1559;-90
2022/01/22 03:59:31;942102.00;3.14;1630.19;86905.00;0.29;150.96;;;;;7.10;1.00;;;;;;2280276;61;2065;-88
2022/01/22 04:04:53;544349.00;1.81;938.22;0.00;0.00;0.62;;;;;7.50;1.00;;;;;;2280302;61;1392;-88
2022/01/22 04:07:59;674711.00;2.25;1163.41;0.00;0.00;0.62;;;;;7.40;1.00;;;;;;2280362;61;1172;-89
2022/01/22 04:10:25;611557.00;2.04;1054.18;16501.00;0.06;29.21;;;;;7.30;1.00;;;;;;2280317;61;1119;-89
2022/01/22 04:12:58;946621.00;3.16;1638.15;0.00;0.00;0.62;;;;;7.00;1.00;;;;;;2280298;61;1249;-88
2022/01/22 04:15:28;624637.00;2.08;1076.78;0.00;0.00;0.62;;;;;6.90;1.00;;;;;;2280260;61;1626;-88
2022/01/22 04:26:29;694889.00;2.32;1198.38;55403.00;0.18;96.53;;;;;6.60;1.00;;;;;;2280274;61;688;-88
2022/01/22 04:28:57;1011825.00;3.37;1753.43;82874.00;0.28;144.00;;;;;6.60;1.00;;;;;;2275754;61;959;-90
2022/01/22 04:31:24;988415.00;3.29;1711.96;159702.00;0.53;276.53;;;;;6.50;1.00;;;;;;2275703;61;1039;-88
2022/01/22 04:33:52;1084686.00;3.62;1883.06;70977.00;0.24;123.45;;;;;6.40;1.00;;;;;;2275568;61;1560;-88
2022/01/22 04:36:21;814659.00;2.72;1406.70;132635.00;0.44;229.87;;;;;6.90;1.00;;;;;;2275594;61;1568;-89
2022/01/22 04:38:48;1032277.00;3.44;1789.72;169621.00;0.57;293.61;;;;;7.20;1.00;;;;;;2276312;61;1918;-88
2022/01/22 04:41:15;773265.00;2.58;1334.54;145666.00;0.49;252.34;;;;;7.50;1.00;;;;;;2276291;61;1623;-89
2022/01/22 04:43:44;872004.00;2.91;1507.00;69703.00;0.23;121.25;;;;;7.30;1.00;;;;;;2276325;61;1387;-89
2022/01/22 04:46:19;119410176.00;398.03;68971936.00;26725.00;0.09;46.91;;;;;7.50;1.00;;;;;;2277009;61;1541;-89
2022/01/22 04:49:05;1227647.00;4.09;2140.29;75509.00;0.25;131.28;;;;;7.50;1.00;;;;;;2280938;61;995;-88
2022/01/22 04:57:13;854016.00;2.85;1475.50;0.00;0.00;0.62;;;;;7.30;1.00;;;;;;2281021;61;641;-89
2022/01/22 04:59:40;755983.00;2.52;1304.46;96487.00;0.32;167.51;;;;;7.70;1.00;;;;;;2280857;61;2007;-89
2022/01/22 05:02:07;117966272.00;393.22;66497876.00;17315.00;0.06;30.62;;;;;7.90;1.00;;;;;;2280922;61;1060;-89
2022/01/22 05:04:35;1295864.00;4.32;2264.54;0.00;0.00;0.62;;;;;7.80;1.00;;;;;;2280826;61;1477;-88
2022/01/22 05:07:04;118249824.00;394.17;66978972.00;32705.00;0.11;57.26;;;;;7.50;1.00;;;;;;2280834;61;1013;-88
2022/01/22 05:09:31;120129664.00;400.43;70227376.00;95457.00;0.32;165.73;;;;;7.40;1.00;;;;;;2280868;61;1436;-87
2022/01/22 05:11:59;1022072.00;3.41;1771.60;72985.00;0.24;126.92;;;;;7.30;1.00;;;;;;2280822;61;1474;-88
2022/01/22 05:14:26;1248117.00;4.16;2177.46;73571.00;0.25;127.93;;;;;7.40;1.00;;;;;;2280768;61;1579;-88
2022/01/22 05:16:55;118559552.00;395.20;67507144.00;0.00;0.00;0.62;;;;;7.10;1.00;;;;;;2280869;61;996;-88
2022/01/22 05:19:29;680895.00;2.27;1174.12;0.00;0.00;0.62;;;;;7.20;1.00;;;;;;2280747;61;1991;-89
2022/01/22 05:22:00;585149.00;1.95;1008.58;8847.00;0.03;15.95;;;;;7.40;1.00;;;;;;2280838;61;984;-88
2022/01/22 05:24:32;869337.00;2.90;1502.33;0.00;0.00;0.62;;;;;7.40;1.00;;;;;;2280832;61;1414;-89
2022/01/22 05:30:06;784544.00;2.62;1354.18;0.00;0.00;0.62;;;;;7.60;1.00;;;;;;2280628;61;1247;-90
2022/01/22 05:32:54;141638560.00;472.13;115162448.00;33481.00;0.11;58.61;;;;;7.10;1.00;;;;;;2280704;61;1702;-89
2022/01/22 05:38:09;696960.00;2.32;1201.97;0.00;0.00;0.62;;;;;7.50;1.00;;;;;;2280921;61;1915;-89
2022/01/22 05:40:39;1295076.00;4.32;2263.10;74682.00;0.25;129.85;;;;;7.40;1.00;;;;;;2280756;61;1637;-90
2022/01/22 05:43:06;1407582.00;4.69;2470.39;171959.00;0.57;297.64;;;;;7.10;1.00;;;;;;2280693;61;1585;-90
2022/01/22 05:45:33;1174937.00;3.92;2044.97;74248.00;0.25;129.10;;;;;7.40;1.00;;;;;;2280831;61;1004;-90
2022/01/22 05:48:00;1166258.00;3.89;2029.33;178562.00;0.60;309.01;;;;;7.50;1.00;;;;;;2280566;61;1467;-89
2022/01/22 05:50:49;1212990.00;4.04;2113.72;76312.00;0.25;132.67;;;;;7.80;1.00;;;;;;2280746;61;909;-90
2022/01/22 05:53:31;991972.00;3.31;1718.26;7971.00;0.03;14.43;;;;;7.80;1.00;;;;;;2280660;61;1580;-89
2022/01/22 10:33:26;1380574.00;4.60;2420.34;28827.00;0.10;50.55;;;;;9.10;1.00;;;;;;2236005;62;1287;-88
2022/01/22 10:35:55;1318651.00;4.40;2306.28;0.00;0.00;0.62;;;;;9.10;1.00;;;;;;2235987;62;1606;-88
2022/01/22 10:38:25;1345410.00;4.48;2355.46;22065.00;0.07;38.85;;;;;9.60;1.00;;;;;;2236093;62;1699;-88
2022/01/22 10:49:01;1243684.00;4.15;2169.40;0.00;0.00;0.62;;;;;9.70;1.00;;;;;;2269845;61;1397;-87
2022/01/22 10:51:30;654940.00;2.18;1129.18;0.00;0.00;0.62;;;;;9.80;1.00;;;;;;2268444;61;801;-88
2022/01/22 10:53:59;590568.00;1.97;1017.94;0.00;0.00;0.62;;;;;9.90;1.00;;;;;;2268421;61;1320;-87
2022/01/22 10:56:28;413785.00;1.38;713.50;0.00;0.00;0.62;;;;;10.00;1.00;;;;;;2268410;61;1554;-87
2022/01/22 10:58:59;822809.00;2.74;1420.93;0.00;0.00;0.62;;;;;9.50;1.00;;;;;;2268328;61;1919;-88
2022/01/22 11:01:29;639231.00;2.13;1102.01;40418.00;0.13;70.61;;;;;9.40;1.00;;;;;;2268432;61;945;-86
2022/01/22 11:04:10;835984.00;2.79;1443.95;0.00;0.00;0.62;;;;;9.50;1.00;;;;;;2268375;61;1269;-88
2022/01/22 11:06:39;568876.00;1.90;980.51;0.00;0.00;0.62;;;;;9.30;1.00;;;;;;2268423;61;1069;-87
2022/01/22 11:09:07;739804.00;2.47;1276.33;42707.00;0.14;74.57;;;;;9.10;1.00;;;;;;2268318;61;1121;-87
2022/01/22 11:11:37;448450.00;1.49;773.12;0.00;0.00;0.62;;;;;9.00;1.00;;;;;;2268334;61;1580;-88
2022/01/22 11:14:06;703851.00;2.35;1213.92;0.00;0.00;0.62;;;;;8.60;1.00;;;;;;2268330;61;1467;-88
2022/01/22 11:16:34;765093.00;2.55;1320.31;36829.00;0.12;64.40;;;;;8.80;1.00;;;;;;2268389;61;914;-87
2022/01/22 11:19:03;503916.00;1.68;868.57;0.00;0.00;0.62;;;;;9.10;1.00;;;;;;2268312;61;1916;-88
2022/01/22 11:21:33;773540.00;2.58;1335.02;5032.00;0.02;9.34;;;;;9.50;1.00;;;;;;2268280;61;1007;-88
2022/01/22 11:24:00;654217.00;2.18;1127.93;0.00;0.00;0.62;;;;;9.50;1.00;;;;;;2268325;61;1644;-87
2022/01/22 11:26:29;553750.00;1.85;954.42;0.00;0.00;0.62;;;;;9.30;1.00;;;;;;2268321;61;1430;-88
2022/01/22 11:28:57;642786.00;2.14;1108.16;0.00;0.00;0.62;;;;;9.20;1.00;;;;;;2268325;61;1170;-88
2022/01/22 11:31:27;924738.00;3.08;1599.61;38582.00;0.13;67.43;;;;;9.20;1.00;;;;;;2268367;61;1070;-87
2022/01/22 11:33:55;827978.00;2.76;1429.96;0.00;0.00;0.62;;;;;8.80;1.00;;;;;;2268245;61;1628;-87
2022/01/22 11:36:28;670377.00;2.23;1155.91;0.00;0.00;0.62;;;;;8.40;1.00;;;;;;2268283;61;1541;-88
2022/01/22 11:38:59;610012.00;2.03;1051.51;0.00;0.00;0.62;;;;;8.50;1.00;;;;;;2268360;61;1004;-88
2022/01/22 11:41:28;598660.00;2.00;1031.91;0.00;0.00;0.62;;;;;8.90;1.00;;;;;;2268306;61;2053;-88
2022/01/22 11:44:04;119504640.00;398.35;69135904.00;0.00;0.00;0.62;;;;;9.20;1.00;;;;;;2268227;61;1277;-88
2022/01/22 11:46:35;536907.00;1.79;925.39;0.00;0.00;0.62;;;;;8.60;1.00;;;;;;2268041;61;1574;-89
2022/01/22 11:49:25;534871.00;1.78;921.88;0.00;0.00;0.62;;;;;8.30;1.00;;;;;;2272286;61;1554;-89
2022/01/22 11:51:54;816370.00;2.72;1409.69;0.00;0.00;0.62;;;;;9.00;1.00;;;;;;2272307;61;1005;-88
2022/01/22 11:54:25;957679.00;3.19;1657.66;136712.00;0.46;236.90;;;;;8.80;1.00;;;;;;2272218;61;1573;-88
2022/01/22 11:56:53;895080.00;2.98;1547.48;93549.00;0.31;162.44;;;;;8.30;1.00;;;;;;2272284;61;1468;-88
2022/01/22 11:59:24;964906.00;3.22;1670.41;77260.00;0.26;134.30;;;;;8.00;1.00;;;;;;2272250;61;2006;-88
2022/01/22 12:02:16;1030133.00;3.43;1785.91;64391.00;0.21;112.07;;;;;7.50;1.00;;;;;;2272244;61;1446;-88
2022/01/22 12:05:02;622931.00;2.08;1073.83;99480.00;0.33;172.67;;;;;7.10;1.00;;;;;;2272248;61;1434;-89
2022/01/22 12:07:35;694764.00;2.32;1198.16;0.00;0.00;0.62;;;;;7.10;1.00;;;;;;2272247;61;1648;-89
2022/01/22 12:10:37;819764.00;2.73;1415.61;0.00;0.00;0.62;;;;;7.60;1.00;;;;;;2272352;61;1196;-88
2022/01/22 12:17:04;481731.00;1.61;830.38;0.00;0.00;0.62;;;;;8.30;1.00;;;;;;2267518;61;1582;-89
2022/01/22 12:20:05;573932.00;1.91;989.23;13225.00;0.04;23.54;;;;;8.20;1.00;;;;;;2272170;61;2008;-89
2022/01/22 12:22:48;845908.00;2.82;1461.31;120496.00;0.40;208.94;;;;;8.10;1.00;;;;;;2272212;61;1485;-89
2022/01/22 12:25:50;627355.00;2.09;1081.48;0.00;0.00;0.62;;;;;8.30;1.00;;;;;;2272256;61;1037;-88
2022/01/22 12:28:36;1324382.00;4.41;2316.80;93964.00;0.31;163.15;;;;;8.30;1.00;;;;;;2272262;61;1443;-89
2022/01/22 12:31:18;;;;;;;;;;;;;;;;;;;;;
2022/01/22 12:33:52;950248.00;3.17;1644.55;144458.00;0.48;250.26;;;;;8.20;1.00;;;;;;2272144;61;1222;-90
2022/01/22 12:36:25;971389.00;3.24;1681.86;59885.00;0.20;104.28;;;;;8.30;1.00;;;;;;2272185;61;1740;-89
2022/01/22 12:39:04;499025.00;1.66;860.15;0.00;0.00;0.62;;;;;8.00;1.00;;;;;;2272156;61;1578;-90
2022/01/22 12:41:46;568200.00;1.89;979.34;0.00;0.00;0.62;;;;;8.10;1.00;;;;;;2272154;61;2009;-89
2022/01/22 12:44:26;1137803.00;3.79;1978.16;117776.00;0.39;204.25;;;;;8.20;1.00;;;;;;2272173;61;1601;-89
2022/01/22 12:47:01;688004.00;2.29;1186.44;0.00;0.00;0.62;;;;;8.20;1.00;;;;;;2272070;61;1532;-89
2022/01/22 12:49:30;925244.00;3.08;1600.50;133262.00;0.44;230.95;;;;;8.00;1.00;;;;;;2272156;61;1205;-89
2022/01/22 12:52:00;886370.00;2.95;1532.19;78307.00;0.26;136.11;;;;;8.20;1.00;;;;;;2272147;61;1744;-89
2022/01/22 12:54:28;891640.00;2.97;1541.44;0.00;0.00;0.62;;;;;8.30;1.00;;;;;;2272081;61;1731;-89
2022/01/22 12:57:05;1152212.00;3.84;2004.05;207108.00;0.69;358.16;;;;;7.90;1.00;;;;;;2272055;61;1525;-90
2022/01/22 13:03:00;940197.00;3.13;1626.83;90240.00;0.30;156.72;;;;;7.70;1.00;;;;;;2264307;61;1331;-90
2022/01/22 13:05:36;838253.00;2.79;1447.92;108940.00;0.36;189.00;;;;;8.30;1.00;;;;;;2271151;61;1118;-89
2022/01/22 13:08:11;998590.00;3.33;1729.97;54658.00;0.18;95.24;;;;;8.40;1.00;;;;;;2272802;61;1553;-90
2022/01/22 13:10:48;799201.00;2.66;1379.73;46093.00;0.15;80.43;;;;;8.50;1.00;;;;;;2272820;61;1533;-89
2022/01/22 13:13:26;922494.00;3.07;1595.66;14559.00;0.05;25.85;;;;;8.50;1.00;;;;;;2272756;61;1483;-89
2022/01/22 13:16:23;996679.00;3.32;1726.59;98933.00;0.33;171.73;;;;;8.90;1.00;;;;;;2272863;61;1629;-89
2022/01/22 13:18:58;722156.00;2.41;1245.68;63302.00;0.21;110.18;;;;;8.50;1.00;;;;;;2272752;61;1612;-89
2022/01/22 13:21:31;779809.00;2.60;1345.93;18911.00;0.06;33.38;;;;;8.70;1.00;;;;;;2272815;61;2014;-89
2022/01/22 13:24:07;1080049.00;3.60;1874.78;48869.00;0.16;85.23;;;;;8.80;1.00;;;;;;2272844;61;1385;-89
2022/01/22 13:26:50;693323.00;2.31;1195.66;81286.00;0.27;141.26;;;;;8.90;1.00;;;;;;2272801;61;1575;-88
2022/01/22 13:29:25;550345.00;1.83;948.55;0.00;0.00;0.62;;;;;9.20;1.00;;;;;;2272785;61;1461;-88
2022/01/22 13:32:17;1422786.00;4.74;2498.65;79835.00;0.27;138.75;;;;;9.40;1.00;;;;;;2272459;61;1151;-89
2022/01/22 13:35:01;1074981.00;3.58;1865.74;178290.00;0.59;308.54;;;;;9.00;1.00;;;;;;2272676;61;1533;-89
2022/01/22 13:40:47;1284693.00;4.28;2244.12;63259.00;0.21;110.11;;;;;9.00;1.00;;;;;;2272618;61;2010;-89
2022/01/22 14:04:43;1826519.00;6.09;3273.98;172754.00;0.58;299.01;;;;;10.00;1.00;;;;;;2278443;61;1240;-89
2022/01/22 14:07:25;581498.00;1.94;1002.28;0.00;0.00;0.62;;;;;9.80;1.00;;;;;;2276649;61;1677;-88
2022/01/22 14:09:55;672868.00;2.24;1160.22;0.00;0.00;0.62;;;;;9.60;1.00;;;;;;2276500;61;1083;-88
2022/01/22 14:12:24;653560.00;2.18;1126.80;0.00;0.00;0.62;;;;;10.00;1.00;;;;;;2276702;61;1635;-88
2022/01/22 14:15:05;918510.00;3.06;1588.65;0.00;0.00;0.62;;;;;9.80;1.00;;;;;;2276664;61;1553;-88
2022/01/22 14:17:46;695343.00;2.32;1199.16;0.00;0.00;0.62;;;;;9.80;1.00;;;;;;2276732;61;1062;-88
2022/01/22 14:20:16;697523.00;2.33;1202.94;0.00;0.00;0.62;;;;;9.90;1.00;;;;;;2276667;61;1915;-88
2022/01/22 14:22:56;593550.00;1.98;1023.08;0.00;0.00;0.62;;;;;9.90;1.00;;;;;;2276594;61;1721;-89
2022/01/22 14:25:24;1048455.00;3.49;1818.48;0.00;0.00;0.62;;;;;10.30;1.00;;;;;;2276549;61;1411;-88
2022/01/22 14:28:08;1246939.00;4.16;2175.32;70422.00;0.23;122.49;;;;;10.20;1.00;;;;;;2276527;61;1671;-88
2022/01/22 14:30:41;134918160.00;449.73;99520600.00;0.00;0.00;0.62;;;;;10.40;1.00;;;;;;2276647;61;1607;-88
2022/01/22 14:33:10;688315.00;2.29;1186.98;0.00;0.00;0.62;;;;;10.40;1.00;;;;;;2276584;61;1549;-89
2022/01/22 14:35:39;917713.00;3.06;1587.25;533.00;0.00;1.54;;;;;10.30;1.00;;;;;;2276676;61;924;-87
2022/01/22 14:38:36;616677.00;2.06;1063.02;54295.00;0.18;94.61;;;;;10.20;1.00;;;;;;2276608;61;1420;-88
2022/01/22 14:44:24;680191.00;2.27;1172.90;27188.00;0.09;47.72;;;;;10.10;1.00;;;;;;2276639;61;1309;-88
2022/01/22 14:46:56;984707.00;3.28;1705.40;93424.00;0.31;162.22;;;;;10.20;1.00;;;;;;2276573;61;1551;-88
2022/01/22 14:49:30;601429.00;2.00;1036.69;0.00;0.00;0.62;;;;;10.50;1.00;;;;;;2276488;61;1557;-88
2022/01/22 14:51:59;859349.00;2.86;1484.83;62781.00;0.21;109.28;;;;;10.70;1.00;;;;;;2276526;61;1519;-89
2022/01/22 14:54:31;842487.00;2.81;1455.32;42209.00;0.14;73.71;;;;;10.80;1.00;;;;;;2276508;61;1420;-88
2022/01/22 14:56:58;658237.00;2.19;1134.89;0.00;0.00;0.62;;;;;10.60;1.00;;;;;;2276580;61;963;-88
2022/01/22 14:59:28;935978.00;3.12;1619.40;0.00;0.00;0.62;;;;;10.60;1.00;;;;;;2276525;61;1601;-88
2022/01/22 15:01:56;898304.00;2.99;1553.14;18701.00;0.06;33.02;;;;;10.70;1.00;;;;;;2276514;61;2001;-87
2022/01/22 15:04:23;795096.00;2.65;1372.57;0.00;0.00;0.62;;;;;10.70;1.00;;;;;;2276546;61;1283;-88
2022/01/22 15:06:50;856431.00;2.85;1479.72;0.00;0.00;0.62;;;;;10.50;1.00;;;;;;2276403;61;1225;-88
2022/01/22 15:09:18;586320.00;1.95;1010.60;0.00;0.00;0.62;;;;;10.40;1.00;;;;;;2276515;61;1527;-88
2022/01/22 15:11:47;923976.00;3.08;1598.27;74335.00;0.25;129.25;;;;;10.20;1.00;;;;;;2276457;61;1426;-89
2022/01/22 15:14:15;801327.00;2.67;1383.44;32863.00;0.11;57.54;;;;;10.40;1.00;;;;;;2276505;61;1420;-88
2022/01/22 15:16:48;750196.00;2.50;1294.40;37565.00;0.13;65.68;;;;;10.80;1.00;;;;;;2276461;61;956;-90
2022/01/22 15:19:18;666578.00;2.22;1149.33;0.00;0.00;0.62;;;;;11.00;1.00;;;;;;2276433;61;1174;-88
2022/01/22 15:21:48;674286.00;2.25;1162.68;0.00;0.00;0.62;;;;;11.10;1.00;;;;;;2276349;61;1919;-88
2022/01/22 15:24:17;746980.00;2.49;1288.81;0.00;0.00;0.62;;;;;11.00;1.00;;;;;;2276402;61;1658;-87
2022/01/22 15:26:44;746149.00;2.49;1287.36;22212.00;0.07;39.10;;;;;10.80;1.00;;;;;;2276535;61;1004;-89
2022/01/22 15:29:17;911491.00;3.04;1576.31;0.00;0.00;0.62;;;;;11.10;1.00;;;;;;2276429;61;1714;-88
2022/01/22 15:32:06;638981.00;2.13;1101.58;0.00;0.00;0.62;;;;;11.30;1.00;;;;;;2276403;61;1479;-88
2022/01/22 15:34:44;535115.00;1.78;922.31;0.00;0.00;0.62;;;;;11.20;1.00;;;;;;2276426;61;1447;-88
2022/01/22 15:37:12;531960.00;1.77;916.87;0.00;0.00;0.62;;;;;11.50;1.00;;;;;;2276453;61;1641;-87
2022/01/22 15:39:39;1029168.00;3.43;1784.20;113656.00;0.38;197.14;;;;;11.40;1.00;;;;;;2276387;61;1542;-88
2022/01/22 15:42:07;671847.00;2.24;1158.45;0.00;0.00;0.62;;;;;11.30;1.00;;;;;;2276360;61;2010;-88
2022/01/22 15:44:36;791780.00;2.64;1366.79;48104.00;0.16;83.91;;;;;11.00;1.00;;;;;;2276355;61;1442;-87
2022/01/22 15:47:03;832048.00;2.77;1437.07;30428.00;0.10;53.32;;;;;10.80;1.00;;;;;;2276421;61;1684;-87
2022/01/22 15:49:32;617158.00;2.06;1063.86;11362.00;0.04;20.31;;;;;10.60;1.00;;;;;;2276382;61;1504;-89
2022/01/22 15:52:02;719914.00;2.40;1241.79;0.00;0.00;0.62;;;;;10.70;1.00;;;;;;2276371;61;1585;-88
2022/01/22 15:54:30;723596.00;2.41;1248.18;33389.00;0.11;58.45;;;;;10.70;1.00;;;;;;2276350;61;1581;-88
2022/01/22 15:56:57;118433680.00;394.78;67292160.00;109423.00;0.36;189.83;;;;;10.90;1.00;;;;;;2276241;61;1455;-88
2022/01/22 15:59:24;475881.00;1.59;820.31;0.00;0.00;0.62;;;;;11.00;1.00;;;;;;2276309;61;1616;-89
2022/01/22 16:01:54;815508.00;2.72;1408.18;17572.00;0.06;31.07;;;;;10.90;1.00;;;;;;2276261;61;2008;-89
2022/01/22 16:04:21;539179.00;1.80;929.31;0.00;0.00;0.62;;;;;10.70;1.00;;;;;;2276228;61;1745;-89
2022/01/22 16:07:01;118029232.00;393.43;66604500.00;0.00;0.00;0.62;;;;;10.50;1.00;;;;;;2276286;61;1454;-89
2022/01/22 16:09:30;475968.00;1.59;820.46;0.00;0.00;0.62;;;;;10.60;1.00;;;;;;2276256;61;1447;-88
2022/01/22 16:11:57;608485.00;2.03;1048.87;45976.00;0.15;80.23;;;;;10.80;1.00;;;;;;2276387;61;940;-89
2022/01/22 16:14:25;778494.00;2.59;1343.64;0.00;0.00;0.62;;;;;10.90;1.00;;;;;;2276288;61;1383;-88
2022/01/22 16:16:54;430436.00;1.43;742.14;0.00;0.00;0.62;;;;;10.90;1.00;;;;;;2276303;61;1294;-88
2022/01/22 16:19:23;713352.00;2.38;1230.40;0.00;0.00;0.62;;;;;11.10;1.00;;;;;;2276332;61;1107;-88
2022/01/22 16:21:52;535639.00;1.79;923.21;0.00;0.00;0.62;;;;;10.70;1.00;;;;;;2276259;61;1927;-88